sensor_id;sensor_type;location;lat;lon;timestamp;P1;durP1;ratioP1;P2;durP2;ratioP2
26914;SDS011;14480;52.608;13.416;2022-11-14T07:27:12;168.15;;;54.92;;
26914;SDS011;14480;52.608;13.416;2022-11-14T07:32:34;168.90;;;55.83;;
26914;SDS011;14480;52.608;13.416;2022-11-14T07:38:02;165.65;;;55.35;;
26914;SDS011;14480;52.608;13.416;2022-11-14T07:43:26;162.70;;;55.17;;
26914;SDS011;14480;52.608;13.416;2022-11-14T07:48:49;161.90;;;53.90;;
26914;SDS011;14480;52.608;13.416;2022-11-14T07:54:12;152.73;;;53.40;;
26914;SDS011;14480;52.608;13.416;2022-11-14T07:59:37;159.68;;;53.20;;
26914;SDS011;14480;52.608;13.416;2022-11-14T08:04:59;161.27;;;53.33;;
26914;SDS011;14480;52.608;13.416;2022-11-14T08:10:22;163.27;;;54.70;;
26914;SDS011;14480;52.608;13.416;2022-11-14T08:15:54;155.48;;;53.95;;
26914;SDS011;14480;52.608;13.416;2022-11-14T08:21:17;153.43;;;53.15;;
26914;SDS011;14480;52.608;13.416;2022-11-14T08:26:39;149.82;;;52.20;;
26914;SDS011;14480;52.608;13.416;2022-11-14T08:32:03;145.48;;;51.70;;
26914;SDS011;14480;52.608;13.416;2022-11-14T08:37:26;138.30;;;47.93;;
26914;SDS011;14480;52.608;13.416;2022-11-14T08:42:48;149.45;;;51.70;;
26914;SDS011;14480;52.608;13.416;2022-11-14T08:48:12;154.43;;;50.88;;
26914;SDS011;14480;52.608;13.416;2022-11-14T08:53:35;146.60;;;50.85;;
26914;SDS011;14480;52.608;13.416;2022-11-14T08:58:58;148.75;;;49.75;;
26914;SDS011;14480;52.608;13.416;2022-11-14T09:04:21;147.27;;;50.20;;
26914;SDS011;14480;52.608;13.416;2022-11-14T09:09:44;147.02;;;50.53;;
26914;SDS011;14480;52.608;13.416;2022-11-14T09:15:07;136.10;;;48.05;;
26914;SDS011;14480;52.608;13.416;2022-11-14T09:20:32;152.82;;;48.85;;
26914;SDS011;14480;52.608;13.416;2022-11-14T09:26:02;136.55;;;49.42;;
26914;SDS011;14480;52.608;13.416;2022-11-14T09:31:25;137.20;;;49.20;;
26914;SDS011;14480;52.608;13.416;2022-11-14T09:36:49;141.48;;;49.00;;
26914;SDS011;14480;52.608;13.416;2022-11-14T09:42:15;123.22;;;45.45;;
26914;SDS011;14480;52.608;13.416;2022-11-14T09:47:51;117.68;;;45.90;;
26914;SDS011;14480;52.608;13.416;2022-11-14T09:53:24;121.50;;;45.85;;
26914;SDS011;14480;52.608;13.416;2022-11-14T09:58:54;110.03;;;41.67;;
26914;SDS011;14480;52.608;13.416;2022-11-14T10:04:18;112.45;;;43.67;;
26914;SDS011;14480;52.608;13.416;2022-11-14T10:09:57;113.50;;;41.35;;
26914;SDS011;14480;52.608;13.416;2022-11-14T10:15:25;115.72;;;43.63;;
26914;SDS011;14480;52.608;13.416;2022-11-14T10:20:54;112.28;;;43.28;;
26914;SDS011;14480;52.608;13.416;2022-11-14T10:26:25;112.97;;;42.03;;
26914;SDS011;14480;52.608;13.416;2022-11-14T10:31:51;105.40;;;42.47;;
26914;SDS011;14480;52.608;13.416;2022-11-14T10:37:23;95.45;;;39.30;;
26914;SDS011;14480;52.608;13.416;2022-11-14T10:42:54;98.10;;;38.72;;
26914;SDS011;14480;52.608;13.416;2022-11-14T10:48:28;105.40;;;41.72;;
26914;SDS011;14480;52.608;13.416;2022-11-14T10:53:53;97.82;;;39.78;;
26914;SDS011;14480;52.608;13.416;2022-11-14T10:59:20;97.28;;;40.42;;
26914;SDS011;14480;52.608;13.416;2022-11-14T11:04:43;90.73;;;39.03;;
26914;SDS011;14480;52.608;13.416;2022-11-14T11:10:10;90.00;;;37.88;;
26914;SDS011;14480;52.608;13.416;2022-11-14T11:16:02;91.70;;;38.60;;
26914;SDS011;14480;52.608;13.416;2022-11-14T11:21:26;88.22;;;36.97;;
26914;SDS011;14480;52.608;13.416;2022-11-14T11:27:11;91.43;;;38.78;;
26914;SDS011;14480;52.608;13.416;2022-11-14T11:32:37;93.13;;;39.25;;
26914;SDS011;14480;52.608;13.416;2022-11-14T11:37:59;89.23;;;36.27;;
26914;SDS011;14480;52.608;13.416;2022-11-14T11:43:28;86.45;;;37.50;;
26914;SDS011;14480;52.608;13.416;2022-11-14T11:54:27;83.15;;;36.90;;
26914;SDS011;14480;52.608;13.416;2022-11-14T11:59:59;75.75;;;35.30;;
26914;SDS011;14480;52.608;13.416;2022-11-14T12:05:30;75.95;;;34.83;;
26914;SDS011;14480;52.608;13.416;2022-11-14T12:10:56;86.00;;;37.13;;
26914;SDS011;14480;52.608;13.416;2022-11-14T12:16:27;75.40;;;36.05;;
26914;SDS011;14480;52.608;13.416;2022-11-14T12:22:07;72.47;;;35.53;;
26914;SDS011;14480;52.608;13.416;2022-11-14T12:27:55;75.82;;;35.63;;
26914;SDS011;14480;52.608;13.416;2022-11-14T12:33:26;69.15;;;34.28;;
26914;SDS011;14480;52.608;13.416;2022-11-14T12:38:55;66.90;;;33.75;;
26914;SDS011;14480;52.608;13.416;2022-11-14T12:44:30;71.93;;;33.63;;
26914;SDS011;14480;52.608;13.416;2022-11-14T12:50:01;64.68;;;31.85;;
26914;SDS011;14480;52.608;13.416;2022-11-14T13:01:19;66.57;;;31.65;;
26914;SDS011;14480;52.608;13.416;2022-11-14T13:06:57;57.85;;;30.88;;
26914;SDS011;14480;52.608;13.416;2022-11-14T13:12:31;63.30;;;29.27;;
26914;SDS011;14480;52.608;13.416;2022-11-14T13:18:22;64.57;;;31.05;;
26914;SDS011;14480;52.608;13.416;2022-11-14T13:24:03;57.17;;;29.63;;
26914;SDS011;14480;52.608;13.416;2022-11-14T13:35:22;60.92;;;30.42;;
26914;SDS011;14480;52.608;13.416;2022-11-14T13:40:57;59.08;;;28.85;;
26914;SDS011;14480;52.608;13.416;2022-11-14T13:46:36;62.40;;;29.60;;
26914;SDS011;14480;52.608;13.416;2022-11-14T13:52:14;58.20;;;29.00;;
26914;SDS011;14480;52.608;13.416;2022-11-14T13:57:40;60.73;;;28.73;;
26914;SDS011;14480;52.608;13.416;2022-11-14T14:03:23;54.58;;;28.10;;
26914;SDS011;14480;52.608;13.416;2022-11-14T14:09:02;58.40;;;29.35;;
26914;SDS011;14480;52.608;13.416;2022-11-14T14:14:40;60.85;;;30.92;;
26914;SDS011;14480;52.608;13.416;2022-11-14T14:20:20;61.97;;;29.67;;
26914;SDS011;14480;52.608;13.416;2022-11-14T14:25:58;61.67;;;30.33;;
26914;SDS011;14480;52.608;13.416;2022-11-14T14:31:31;62.95;;;30.20;;
26914;SDS011;14480;52.608;13.416;2022-11-14T14:36:59;61.50;;;30.73;;
26914;SDS011;14480;52.608;13.416;2022-11-14T14:42:21;64.30;;;31.70;;
26914;SDS011;14480;52.608;13.416;2022-11-14T14:47:57;58.53;;;31.13;;
26914;SDS011;14480;52.608;13.416;2022-11-14T14:53:25;69.55;;;33.70;;
26914;SDS011;14480;52.608;13.416;2022-11-14T14:58:49;66.20;;;33.75;;
26914;SDS011;14480;52.608;13.416;2022-11-14T15:04:12;59.72;;;30.98;;
26914;SDS011;14480;52.608;13.416;2022-11-14T15:09:39;64.25;;;32.70;;
26914;SDS011;14480;52.608;13.416;2022-11-14T15:15:12;60.92;;;31.88;;
26914;SDS011;14480;52.608;13.416;2022-11-14T15:20:37;65.13;;;33.22;;
26914;SDS011;14480;52.608;13.416;2022-11-14T15:26:02;68.25;;;31.27;;
26914;SDS011;14480;52.608;13.416;2022-11-14T15:31:28;62.97;;;32.03;;
26914;SDS011;14480;52.608;13.416;2022-11-14T15:37:06;63.53;;;33.90;;
26914;SDS011;14480;52.608;13.416;2022-11-14T15:42:46;66.30;;;33.70;;
26914;SDS011;14480;52.608;13.416;2022-11-14T15:48:10;67.93;;;34.10;;
26914;SDS011;14480;52.608;13.416;2022-11-14T15:53:36;65.35;;;32.65;;
26914;SDS011;14480;52.608;13.416;2022-11-14T15:59:00;64.57;;;32.65;;
26914;SDS011;14480;52.608;13.416;2022-11-14T16:04:24;60.08;;;33.38;;
26914;SDS011;14480;52.608;13.416;2022-11-14T16:09:51;61.42;;;32.72;;
26914;SDS011;14480;52.608;13.416;2022-11-14T16:15:15;63.25;;;33.38;;
26914;SDS011;14480;52.608;13.416;2022-11-14T16:20:42;62.78;;;32.65;;
26914;SDS011;14480;52.608;13.416;2022-11-14T16:26:38;64.85;;;34.42;;
26914;SDS011;14480;52.608;13.416;2022-11-14T16:32:02;60.60;;;34.28;;
26914;SDS011;14480;52.608;13.416;2022-11-14T16:37:24;65.43;;;34.60;;
26914;SDS011;14480;52.608;13.416;2022-11-14T16:42:47;70.75;;;36.03;;
26914;SDS011;14480;52.608;13.416;2022-11-14T16:48:14;68.68;;;36.00;;
26914;SDS011;14480;52.608;13.416;2022-11-14T16:53:36;62.38;;;34.30;;
26914;SDS011;14480;52.608;13.416;2022-11-14T16:59:01;66.68;;;34.53;;
26914;SDS011;14480;52.608;13.416;2022-11-14T17:04:28;64.13;;;34.63;;
26914;SDS011;14480;52.608;13.416;2022-11-14T17:09:50;63.10;;;34.50;;
26914;SDS011;14480;52.608;13.416;2022-11-14T17:15:12;66.43;;;35.67;;
26914;SDS011;14480;52.608;13.416;2022-11-14T17:20:38;68.28;;;35.85;;
26914;SDS011;14480;52.608;13.416;2022-11-14T17:26:00;66.78;;;36.85;;
26914;SDS011;14480;52.608;13.416;2022-11-14T17:31:23;68.82;;;36.28;;
26914;SDS011;14480;52.608;13.416;2022-11-14T17:36:47;70.30;;;37.30;;
26914;SDS011;14480;52.608;13.416;2022-11-14T17:42:09;65.57;;;35.77;;
26914;SDS011;14480;52.608;13.416;2022-11-14T17:47:32;70.75;;;37.22;;
26914;SDS011;14480;52.608;13.416;2022-11-14T17:52:55;68.72;;;35.72;;
26914;SDS011;14480;52.608;13.416;2022-11-14T17:58:17;69.18;;;37.33;;
26914;SDS011;14480;52.608;13.416;2022-11-14T18:03:40;61.88;;;34.83;;
26914;SDS011;14480;52.608;13.416;2022-11-14T18:09:04;66.65;;;35.92;;
26914;SDS011;14480;52.608;13.416;2022-11-14T18:14:33;68.68;;;36.45;;
26914;SDS011;14480;52.608;13.416;2022-11-14T18:19:56;66.00;;;35.88;;
26914;SDS011;14480;52.608;13.416;2022-11-14T18:25:21;69.93;;;35.47;;
26914;SDS011;14480;52.608;13.416;2022-11-14T18:36:15;70.05;;;36.00;;
26914;SDS011;14480;52.608;13.416;2022-11-14T18:41:39;58.72;;;34.50;;
26914;SDS011;14480;52.608;13.416;2022-11-14T18:47:02;69.70;;;37.67;;
26914;SDS011;14480;52.608;13.416;2022-11-14T18:52:27;67.75;;;36.17;;
26914;SDS011;14480;52.608;13.416;2022-11-14T18:57:53;65.93;;;35.63;;
26914;SDS011;14480;52.608;13.416;2022-11-14T19:03:17;75.63;;;38.90;;
26914;SDS011;14480;52.608;13.416;2022-11-14T19:08:40;72.38;;;38.05;;
26914;SDS011;14480;52.608;13.416;2022-11-14T19:14:05;70.10;;;38.65;;
26914;SDS011;14480;52.608;13.416;2022-11-14T19:19:27;72.45;;;38.47;;
26914;SDS011;14480;52.608;13.416;2022-11-14T19:24:51;82.07;;;39.90;;
26914;SDS011;14480;52.608;13.416;2022-11-14T19:30:15;72.85;;;38.15;;
26914;SDS011;14480;52.608;13.416;2022-11-14T19:35:38;81.70;;;42.67;;
26914;SDS011;14480;52.608;13.416;2022-11-14T19:41:04;80.05;;;42.50;;
26914;SDS011;14480;52.608;13.416;2022-11-14T19:46:29;79.28;;;40.30;;
26914;SDS011;14480;52.608;13.416;2022-11-14T19:51:52;72.38;;;39.53;;
26914;SDS011;14480;52.608;13.416;2022-11-14T19:57:21;76.22;;;40.88;;
26914;SDS011;14480;52.608;13.416;2022-11-14T20:02:45;81.35;;;42.03;;
26914;SDS011;14480;52.608;13.416;2022-11-14T20:08:11;78.30;;;41.10;;
26914;SDS011;14480;52.608;13.416;2022-11-14T20:13:34;81.82;;;42.47;;
26914;SDS011;14480;52.608;13.416;2022-11-14T20:19:00;78.93;;;41.43;;
26914;SDS011;14480;52.608;13.416;2022-11-14T20:24:22;81.32;;;41.90;;
26914;SDS011;14480;52.608;13.416;2022-11-14T20:29:47;82.05;;;42.75;;
26914;SDS011;14480;52.608;13.416;2022-11-14T20:35:12;87.35;;;42.70;;
26914;SDS011;14480;52.608;13.416;2022-11-14T20:40:34;79.03;;;42.30;;
26914;SDS011;14480;52.608;13.416;2022-11-14T20:45:57;76.68;;;41.97;;
26914;SDS011;14480;52.608;13.416;2022-11-14T20:51:23;79.13;;;41.20;;
26914;SDS011;14480;52.608;13.416;2022-11-14T20:56:48;81.95;;;41.45;;
26914;SDS011;14480;52.608;13.416;2022-11-14T21:02:14;84.63;;;43.63;;
26914;SDS011;14480;52.608;13.416;2022-11-14T21:07:39;82.45;;;41.63;;
26914;SDS011;14480;52.608;13.416;2022-11-14T21:13:05;87.43;;;44.67;;
26914;SDS011;14480;52.608;13.416;2022-11-14T21:18:52;80.65;;;40.90;;
26914;SDS011;14480;52.608;13.416;2022-11-14T21:24:17;82.32;;;42.17;;
26914;SDS011;14480;52.608;13.416;2022-11-14T21:29:39;82.45;;;42.78;;
26914;SDS011;14480;52.608;13.416;2022-11-14T21:35:03;82.35;;;42.40;;
26914;SDS011;14480;52.608;13.416;2022-11-14T21:40:31;82.03;;;41.78;;
26914;SDS011;14480;52.608;13.416;2022-11-14T21:45:57;79.03;;;42.58;;
26914;SDS011;14480;52.608;13.416;2022-11-14T21:51:23;83.03;;;42.03;;
26914;SDS011;14480;52.608;13.416;2022-11-14T21:56:49;86.13;;;42.65;;
26914;SDS011;14480;52.608;13.416;2022-11-14T22:02:12;79.63;;;43.38;;
26914;SDS011;14480;52.608;13.416;2022-11-14T22:07:52;85.65;;;44.15;;
26914;SDS011;14480;52.608;13.416;2022-11-14T22:13:16;84.07;;;42.58;;
26914;SDS011;14480;52.608;13.416;2022-11-14T22:18:38;87.45;;;44.42;;
26914;SDS011;14480;52.608;13.416;2022-11-14T22:24:04;85.40;;;42.90;;
26914;SDS011;14480;52.608;13.416;2022-11-14T22:29:30;85.03;;;45.47;;
26914;SDS011;14480;52.608;13.416;2022-11-14T22:34:53;87.38;;;45.10;;
26914;SDS011;14480;52.608;13.416;2022-11-14T22:40:15;85.80;;;44.05;;
26914;SDS011;14480;52.608;13.416;2022-11-14T22:45:40;86.03;;;43.45;;
26914;SDS011;14480;52.608;13.416;2022-11-14T22:51:04;88.90;;;45.85;;
26914;SDS011;14480;52.608;13.416;2022-11-14T22:56:30;90.80;;;44.83;;
